Sunday, July 22, 2018, 4:23 AM GMT
Back to Local

CYUL, Montreal / Pierre Elliot Trudeau International Airport, Que

Location: , , Canada Lat: 45.467
Local Time: 4:23 AM GMT ( 4:23 GMT) Lon: -73.75
Time Zone: GMT Elev: 101 ft

Show me the last for .
Show Decoded

2018-07-22 04:00 METAR CYUL 220400Z 15010KT 15SM BKN250 24/14 A3004 RMK CI7 SLP173 DENSITY ALT
                 1100FT =
2018-07-22 03:00 METAR CYUL 220300Z 16011KT 15SM BKN250 26/14 A3003 RMK CI5 SLP171 DENSITY ALT
                 1300FT =
2018-07-22 02:00 METAR CYUL 220200Z 11005KT 15SM FEW150 BKN250 26/15 A3002 RMK AC1CI5 SLP167
                 DENSITY ALT 1400FT =
2018-07-22 01:00 METAR CYUL 220100Z 14006KT 15SM FEW150 SCT250 27/14 A3002 RMK AC1CI2 SLP167
                 DENSITY ALT 1500FT =
2018-07-22 00:00 METAR CYUL 220000Z 14009KT 30SM FEW150 SCT220 BKN250 29/13 A3000 RMK AC1CI2CI4
                 SLP162 DENSITY ALT 1700FT =
2018-07-21 23:00 METAR CYUL 212300Z 15010KT 30SM FEW070 FEW150 BKN240 30/15 A3000 RMK AC1AC1CI3
                 SLP160 DENSITY ALT 1800FT =
2018-07-21 22:00 METAR CYUL 212200Z 14007KT 30SM FEW040 FEW070 SCT240 30/15 A3000 RMK CU1AC1CI2
                 CU TR SLP161 DENSITY ALT 1800FT =
2018-07-21 21:00 METAR CYUL 212100Z 15011KT 30SM FEW040 FEW070 SCT240 31/15 A3001 RMK CU1AC1CI3
                 CU TR SLP165 DENSITY ALT 1900FT =
2018-07-21 20:00 METAR CYUL 212000Z 10007G17KT 060V130 30SM FEW040 FEW100 SCT150 BKN240 31/16
                 A3002 RMK CU1AC1AC2CI2 CU TR SLP165 DENSITY ALT 1900FT =
2018-07-21 19:00 METAR CYUL 211900Z 12008G16KT 100V170 30SM FEW040 FEW150 BKN240 30/15 A3003 RMK
                 CU1AC1CI5 SLP171 DENSITY ALT 1800FT =
2018-07-21 18:00 METAR CYUL 211800Z 14011G18KT 30SM FEW040 BKN240 30/14 A3005 RMK CU1CI6 SLP177
                 DENSITY ALT 1700FT =
2018-07-21 17:00 METAR CYUL 211700Z 12010G15KT 090V170 30SM FEW040 BKN200 BKN250 29/14 A3005 RMK
                 CU1CI4CI2 SLP178 DENSITY ALT 1600FT =
2018-07-21 16:00 METAR CYUL 211600Z 14008KT 100V170 30SM FEW040 SCT200 BKN250 28/14 A3008 RMK
                 CU1CI2CI3 SLP186 DENSITY ALT 1500FT =
2018-07-21 15:00 METAR CYUL 211500Z 16008KT 100V220 30SM FEW040 SCT250 28/16 A3008 RMK CU1CI4 CU
                 TR SLP188 DENSITY ALT 1500FT =
2018-07-21 14:00 METAR CYUL 211400Z 17006KT 130V190 30SM SCT250 26/17 A3009 RMK CI3 SLP191
                 DENSITY ALT 1300FT =
2018-07-21 13:00 METAR CYUL 211300Z 16006KT 30SM SCT250 24/16 A3010 RMK CI3 SLP193 DENSITY ALT
                 1100FT =
2018-07-21 12:00 METAR CYUL 211200Z 14005KT 30SM FEW150 FEW250 23/16 A3010 RMK AC1CI1 AC TR
                 SLP193 DENSITY ALT 900FT =
2018-07-21 11:00 METAR CYUL 211100Z 14006KT 30SM FEW250 21/15 A3009 RMK CI1 CONTRAILS SLP192
                 DENSITY ALT 700FT =
2018-07-21 10:00 METAR CYUL 211000Z 14005KT 30SM FEW250 21/15 A3009 RMK CI1 CI TR SLP190 DENSITY
                 ALT 600FT =
2018-07-21 09:00 METAR CYUL 210900Z 14006KT 15SM FEW250 21/15 A3007 RMK CI1 CI TR SLP185 DENSITY
                 ALT 700FT =
2018-07-21 08:00 METAR CYUL 210800Z 13008KT 15SM SKC 22/14 A3006 RMK SLP180 DENSITY ALT 800FT =
2018-07-21 07:00 METAR CYUL 210700Z 13004KT 15SM SKC 22/14 A3005 RMK SLP177 DENSITY ALT 900FT =
2018-07-21 06:00 METAR CYUL 210600Z 14005KT 15SM SKC 23/14 A3004 RMK SLP175 DENSITY ALT 1000FT =
2018-07-21 05:00 METAR CYUL 210500Z 14010KT 15SM SKC 24/14 A3004 RMK SLP174 DENSITY ALT 1100FT =

Support USWX by starting your Amazon purchase here.